Time;durP1;ratioP1;P1;durP2;ratioP2;P2;SDS_P1;SDS_P2;PMS_P1;PMS_P2;Temp;Humidity;BMP_temperature;BMP_pressure;BME280_temperature;BME280_humidity;BME280_pressure;Samples;Min_cycle;Max_cycle;Signal;HPM_P1;HPM_P2
2024/02/17 00:01:29;;;;;;;25.10;16.70;;;;;;;1.05;100.00;101582.66;87129;279;137096;-71
2024/02/17 00:03:31;;;;;;;22.90;16.30;;;;;;;1.07;100.00;101584.24;87515;267;22540;-70
2024/02/17 00:05:33;;;;;;;24.90;17.60;;;;;;;1.09;100.00;101587.86;87278;274;137738;-72
2024/02/17 00:07:35;;;;;;;26.20;19.40;;;;;;;1.08;100.00;101591.21;87433;270;22565;-72
2024/02/17 00:09:37;;;;;;;36.70;24.80;;;;;;;1.01;100.00;101590.25;87359;274;135703;-72
2024/02/17 00:11:39;;;;;;;31.70;22.00;;;;;;;0.97;100.00;101597.16;87384;278;24117;-72
2024/02/17 00:13:42;;;;;;;30.70;20.70;;;;;;;0.91;100.00;101589.61;87447;276;136389;-75
2024/02/17 00:15:44;;;;;;;27.60;19.10;;;;;;;0.94;100.00;101589.98;87506;270;23475;-71
2024/02/17 00:17:46;;;;;;;27.30;17.70;;;;;;;0.99;100.00;101591.40;87421;271;136269;-71
2024/02/17 00:19:48;;;;;;;28.70;17.60;;;;;;;1.01;100.00;101586.77;87638;270;25071;-72
2024/02/17 00:21:50;;;;;;;29.00;18.90;;;;;;;1.08;100.00;101588.44;87402;265;137446;-72
2024/02/17 00:23:52;;;;;;;28.00;19.20;;;;;;;1.11;100.00;101583.34;87555;271;24240;-71
2024/02/17 00:25:54;;;;;;;31.90;22.90;;;;;;;1.09;100.00;101586.75;87593;271;136101;-72
2024/02/17 00:27:55;;;;;;;32.20;19.70;;;;;;;1.02;100.00;101581.09;87571;274;22581;-73
2024/02/17 00:29:57;;;;;;;25.80;18.70;;;;;;;0.96;100.00;101577.23;87499;270;137332;-71
2024/02/17 00:31:59;;;;;;;25.90;19.30;;;;;;;0.98;100.00;101572.23;87477;266;22628;-72
2024/02/17 00:34:00;;;;;;;29.00;20.60;;;;;;;1.01;100.00;101576.41;87578;266;137718;-73
2024/02/17 00:36:04;;;;;;;32.30;18.50;;;;;;;1.05;100.00;101573.38;87516;267;137994;-72
2024/02/17 00:38:06;;;;;;;26.00;17.80;;;;;;;1.06;100.00;101571.22;87809;270;23998;-72
2024/02/17 00:40:08;;;;;;;24.60;16.70;;;;;;;1.09;100.00;101569.96;87475;271;136789;-73
2024/02/17 00:42:09;;;;;;;22.40;16.20;;;;;;;1.07;100.00;101571.66;87562;263;22581;-74
2024/02/17 00:44:12;;;;;;;27.70;19.00;;;;;;;0.99;100.00;101571.46;87391;266;136167;-73
2024/02/17 00:46:14;;;;;;;33.20;20.50;;;;;;;0.93;100.00;101579.15;87562;271;24046;-72
2024/02/17 00:48:16;;;;;;;26.00;18.00;;;;;;;0.97;100.00;101574.38;87717;271;137468;-72
2024/02/17 00:50:19;;;;;;;23.20;15.10;;;;;;;1.06;100.00;101575.45;87670;275;22561;-73
2024/02/17 00:52:20;;;;;;;19.00;14.70;;;;;;;1.06;100.00;101575.92;87598;274;136870;-72
2024/02/17 00:54:22;;;;;;;21.10;15.20;;;;;;;1.03;100.00;101573.48;87567;278;22587;-71
2024/02/17 00:56:24;;;;;;;24.40;14.80;;;;;;;0.97;100.00;101570.03;87532;278;136194;-74
2024/02/17 00:58:26;;;;;;;21.60;16.30;;;;;;;0.88;100.00;101563.59;87586;271;22566;-75
2024/02/17 01:00:28;;;;;;;24.30;15.70;;;;;;;0.92;100.00;101565.09;87464;267;136353;-74
2024/02/17 01:02:32;;;;;;;22.30;15.80;;;;;;;0.98;100.00;101565.02;87747;271;22717;-72
2024/02/17 01:04:34;;;;;;;24.30;14.60;;;;;;;0.98;100.00;101563.47;87289;275;136402;-71
2024/02/17 01:06:36;;;;;;;24.50;17.20;;;;;;;0.96;100.00;101556.77;87426;271;22877;-71
2024/02/17 01:08:38;;;;;;;26.10;16.70;;;;;;;0.94;100.00;101549.88;87444;269;136249;-72
2024/02/17 01:10:39;;;;;;;27.60;19.00;;;;;;;0.92;100.00;101549.34;87650;271;25185;-70
2024/02/17 01:12:43;;;;;;;28.40;19.40;;;;;;;0.87;100.00;101551.17;87491;279;137117;-74
2024/02/17 01:14:45;;;;;;;27.30;19.60;;;;;;;0.85;100.00;101556.94;87529;280;25197;-71
2024/02/17 01:16:47;;;;;;;29.40;19.80;;;;;;;0.86;100.00;101551.46;87493;271;136744;-73
2024/02/17 01:18:49;;;;;;;29.70;20.20;;;;;;;0.88;100.00;101553.58;87717;269;24117;-72
2024/02/17 01:20:51;;;;;;;31.80;20.80;;;;;;;0.86;100.00;101550.21;87551;271;136578;-70
2024/02/17 01:22:53;;;;;;;30.50;20.80;;;;;;;0.87;100.00;101553.14;87071;267;22544;-70
2024/02/17 01:24:54;;;;;;;27.90;17.80;;;;;;;0.90;100.00;101555.41;87325;275;137743;-72
2024/02/17 01:26:56;;;;;;;30.40;19.50;;;;;;;0.92;100.00;101562.61;87635;274;22568;-71
2024/02/17 01:28:58;;;;;;;28.30;19.60;;;;;;;0.90;100.00;101562.77;87533;266;137525;-70
2024/02/17 01:31:00;;;;;;;27.10;19.60;;;;;;;0.87;100.00;101565.59;87545;279;22571;-73
2024/02/17 01:33:02;;;;;;;32.60;21.60;;;;;;;0.83;100.00;101568.45;87585;271;137032;-71
2024/02/17 01:35:05;;;;;;;26.20;18.10;;;;;;;0.85;100.00;101563.96;87686;272;24165;-70
2024/02/17 01:37:07;;;;;;;28.00;17.20;;;;;;;0.91;100.00;101563.22;87597;279;136725;-70
2024/02/17 01:39:09;;;;;;;26.00;17.90;;;;;;;0.95;100.00;101557.71;87608;268;22696;-71
2024/02/17 01:41:13;;;;;;;27.80;16.30;;;;;;;0.97;100.00;101557.77;87539;266;139077;-70
2024/02/17 01:43:14;;;;;;;25.60;16.30;;;;;;;0.99;100.00;101552.91;87697;270;23214;-71
2024/02/17 01:45:16;;;;;;;21.70;16.10;;;;;;;1.00;100.00;101557.73;87638;263;136352;-70
2024/02/17 01:47:20;;;;;;;26.00;18.00;;;;;;;0.96;100.00;101554.28;87597;278;25266;-71
2024/02/17 01:49:23;;;;;;;24.70;17.20;;;;;;;0.91;100.00;101550.60;87483;268;136779;-71
2024/02/17 01:51:26;;;;;;;22.50;16.10;;;;;;;0.86;100.00;101546.72;87609;275;22533;-70
2024/02/17 01:53:29;;;;;;;27.00;17.10;;;;;;;0.87;100.00;101546.48;87424;279;136778;-70
2024/02/17 01:55:31;;;;;;;26.20;16.80;;;;;;;0.92;100.00;101540.06;87717;272;24171;-70
2024/02/17 01:57:34;;;;;;;22.60;15.30;;;;;;;0.99;100.00;101540.64;87332;272;136576;-73
2024/02/17 01:59:37;;;;;;;23.30;18.50;;;;;;;1.05;100.00;101539.22;87712;283;22655;-73
2024/02/17 02:01:43;;;;;;;28.50;18.90;;;;;;;1.11;100.00;101538.86;87396;273;136351;-70
2024/02/17 02:03:46;;;;;;;24.70;19.00;;;;;;;1.10;100.00;101539.08;87808;263;26479;-72
2024/02/17 02:05:48;;;;;;;32.00;20.70;;;;;;;1.04;100.00;101540.15;87440;271;135853;-71
2024/02/17 02:07:50;;;;;;;30.00;21.50;;;;;;;1.00;100.00;101537.77;87630;274;24007;-72
2024/02/17 02:09:52;;;;;;;35.60;21.80;;;;;;;0.96;100.00;101536.66;87452;271;135999;-72
2024/02/17 02:11:56;;;;;;;31.60;21.90;;;;;;;0.91;100.00;101537.30;87529;271;23737;-72
2024/02/17 02:14:17;;;;;;;39.40;22.60;;;;;;;0.89;100.00;101539.73;87532;270;137534;-72
2024/02/17 02:16:19;;;;;;;35.30;21.20;;;;;;;0.89;100.00;101535.84;87718;273;138339;-69
2024/02/17 02:18:21;;;;;;;29.80;20.70;;;;;;;0.93;100.00;101538.58;87667;274;22670;-70
2024/02/17 02:20:25;;;;;;;34.80;22.60;;;;;;;0.95;100.00;101533.86;87520;267;136856;-71
2024/02/17 02:22:27;;;;;;;29.50;21.50;;;;;;;0.97;100.00;101531.11;87488;279;26268;-72
2024/02/17 02:24:29;;;;;;;36.70;23.80;;;;;;;1.05;100.00;101530.69;87477;276;137998;-71
2024/02/17 02:26:31;;;;;;;34.70;24.40;;;;;;;1.08;100.00;101526.95;87705;266;25309;-71
2024/02/17 02:28:34;;;;;;;35.50;22.20;;;;;;;1.01;100.00;101528.65;87788;271;136055;-72
2024/02/17 02:30:36;;;;;;;30.80;21.60;;;;;;;0.92;100.00;101530.80;87736;271;25112;-73
2024/02/17 02:32:38;;;;;;;31.80;22.90;;;;;;;0.86;100.00;101532.16;87571;275;138019;-75
2024/02/17 02:34:40;;;;;;;40.60;23.30;;;;;;;0.85;100.00;101530.71;87644;267;22974;-70
2024/02/17 02:36:42;;;;;;;38.70;20.90;;;;;;;0.82;100.00;101528.09;87492;271;137129;-69
2024/02/17 02:38:44;;;;;;;33.20;21.70;;;;;;;0.76;100.00;101525.48;87555;266;23402;-70
2024/02/17 02:40:46;;;;;;;31.00;20.90;;;;;;;0.72;100.00;101524.31;87610;270;138046;-72
2024/02/17 02:42:48;;;;;;;29.30;20.40;;;;;;;0.69;100.00;101520.66;87684;271;22575;-72
2024/02/17 02:44:50;;;;;;;33.30;20.70;;;;;;;0.70;100.00;101522.02;87577;278;136908;-69
2024/02/17 02:46:52;;;;;;;30.90;19.20;;;;;;;0.72;100.00;101519.80;87633;267;24002;-71
2024/02/17 02:48:54;;;;;;;32.90;19.10;;;;;;;0.74;100.00;101516.81;87518;271;136959;-71
2024/02/17 02:50:56;;;;;;;26.30;18.70;;;;;;;0.76;100.00;101512.86;87459;267;22566;-70
2024/02/17 02:52:57;;;;;;;27.00;17.70;;;;;;;0.75;100.00;101510.86;87552;270;136218;-72
2024/02/17 02:54:59;;;;;;;37.70;22.00;;;;;;;0.72;100.00;101506.45;87604;270;25127;-70
2024/02/17 02:57:01;;;;;;;31.80;19.60;;;;;;;0.71;100.00;101502.67;87827;266;136413;-71
2024/02/17 02:59:03;;;;;;;32.90;20.00;;;;;;;0.73;100.00;101500.61;87742;263;25101;-72
2024/02/17 03:01:05;;;;;;;31.00;19.10;;;;;;;0.76;100.00;101504.79;87674;271;139389;-70
2024/02/17 03:03:09;;;;;;;27.60;19.90;;;;;;;0.75;100.00;101501.22;87735;271;22568;-69
2024/02/17 03:05:11;;;;;;;30.60;20.60;;;;;;;0.73;100.00;101500.59;87588;274;136583;-72
2024/02/17 03:07:13;;;;;;;33.00;21.20;;;;;;;0.72;100.00;101504.53;87652;269;24026;-70
2024/02/17 03:09:15;;;;;;;35.40;21.60;;;;;;;0.71;100.00;101504.81;87711;269;137023;-70
2024/02/17 03:11:16;;;;;;;29.00;19.10;;;;;;;0.72;100.00;101503.15;87898;275;23480;-70
2024/02/17 03:13:18;;;;;;;29.50;20.10;;;;;;;0.67;100.00;101500.11;87653;269;136509;-71
2024/02/17 03:15:20;;;;;;;33.40;22.10;;;;;;;0.59;100.00;101498.02;87771;269;22563;-72
2024/02/17 03:17:22;;;;;;;36.10;22.80;;;;;;;0.59;100.00;101497.82;87466;271;137191;-72
2024/02/17 03:19:24;;;;;;;28.30;21.60;;;;;;;0.62;100.00;101498.69;87668;274;23898;-76
2024/02/17 03:21:26;;;;;;;28.70;19.00;;;;;;;0.66;100.00;101497.59;87570;278;136940;-72
2024/02/17 03:23:27;;;;;;;34.00;21.10;;;;;;;0.67;100.00;101499.60;87630;268;24052;-72
2024/02/17 03:25:29;;;;;;;28.20;19.00;;;;;;;0.69;100.00;101503.02;87629;274;138212;-70
2024/02/17 03:27:31;;;;;;;36.00;22.80;;;;;;;0.67;100.00;101502.39;87719;265;25184;-72
2024/02/17 03:29:33;;;;;;;32.20;22.60;;;;;;;0.65;100.00;101505.34;87435;270;136308;-74
2024/02/17 03:31:37;;;;;;;36.60;22.40;;;;;;;0.61;100.00;101506.27;87608;270;22571;-71
2024/02/17 03:33:39;;;;;;;32.50;22.20;;;;;;;0.61;100.00;101504.03;87429;269;136680;-73
2024/02/17 03:35:41;;;;;;;30.30;19.80;;;;;;;0.66;100.00;101506.65;87676;271;25101;-70
2024/02/17 03:37:43;;;;;;;34.80;20.70;;;;;;;0.72;100.00;101504.91;87398;270;138303;-70
2024/02/17 03:39:45;;;;;;;34.20;21.70;;;;;;;0.77;100.00;101505.95;87646;271;22571;-70
2024/02/17 03:41:48;;;;;;;36.20;22.00;;;;;;;0.79;100.00;101509.34;87658;267;136892;-69
2024/02/17 03:43:49;;;;;;;30.60;20.70;;;;;;;0.81;100.00;101507.46;87694;267;23360;-73
2024/02/17 03:45:51;;;;;;;37.50;23.90;;;;;;;0.83;100.00;101510.34;87471;271;136864;-69
2024/02/17 03:47:53;;;;;;;33.70;21.80;;;;;;;0.76;100.00;101504.60;87567;271;22667;-71
2024/02/17 03:49:54;;;;;;;35.40;23.40;;;;;;;0.68;100.00;101500.94;87401;271;137308;-71
2024/02/17 03:51:56;;;;;;;38.20;22.90;;;;;;;0.63;100.00;101501.45;87519;271;24036;-71
2024/02/17 03:53:58;;;;;;;36.60;23.90;;;;;;;0.61;100.00;101496.50;87499;267;138239;-70
2024/02/17 03:56:00;;;;;;;34.70;22.60;;;;;;;0.60;100.00;101496.19;87667;271;23275;-69
2024/02/17 03:58:02;;;;;;;41.10;25.40;;;;;;;0.62;100.00;101491.72;87394;267;136630;-70
2024/02/17 04:00:06;;;;;;;38.80;25.30;;;;;;;0.64;100.00;101493.48;87605;274;137349;-70
2024/02/17 04:02:14;;;;;;;34.10;22.10;;;;;;;0.70;100.00;101489.13;87609;279;22734;-73
2024/02/17 04:04:15;;;;;;;35.30;23.50;;;;;;;0.74;100.00;101485.72;87472;271;137094;-69
2024/02/17 04:06:17;;;;;;;37.30;24.00;;;;;;;0.74;100.00;101480.64;87152;271;22527;-70
2024/02/17 04:08:20;;;;;;;35.40;23.70;;;;;;;0.71;100.00;101475.42;87788;271;136406;-72
2024/02/17 04:10:22;;;;;;;36.50;24.20;;;;;;;0.67;100.00;101474.45;87707;274;23997;-72
2024/02/17 04:12:24;;;;;;;42.70;25.90;;;;;;;0.65;100.00;101471.55;87606;271;139332;-69
2024/02/17 04:14:26;;;;;;;35.60;22.00;;;;;;;0.68;100.00;101469.48;87722;269;25137;-72
2024/02/17 04:16:27;;;;;;;38.60;24.20;;;;;;;0.68;100.00;101472.23;87571;279;138125;-70
2024/02/17 04:18:29;;;;;;;33.70;22.50;;;;;;;0.71;100.00;101476.63;87592;266;22539;-71
2024/02/17 04:20:31;;;;;;;38.20;22.50;;;;;;;0.71;100.00;101476.44;87082;274;137615;-71
2024/02/17 04:22:33;;;;;;;33.40;22.70;;;;;;;0.72;100.00;101474.42;87148;271;24996;-71
2024/02/17 04:24:35;;;;;;;30.40;21.70;;;;;;;0.73;100.00;101473.67;87487;271;137198;-70
2024/02/17 04:26:38;;;;;;;38.20;22.90;;;;;;;0.76;100.00;101476.32;87866;271;23320;-73
2024/02/17 04:28:40;;;;;;;36.60;23.60;;;;;;;0.73;100.00;101476.32;87587;271;136406;-73
2024/02/17 04:30:42;;;;;;;32.10;22.40;;;;;;;0.67;100.00;101478.43;87647;271;25193;-70
2024/02/17 04:32:44;;;;;;;32.30;19.60;;;;;;;0.61;100.00;101478.45;87524;270;136709;-70
2024/02/17 04:34:45;;;;;;;35.20;23.50;;;;;;;0.59;100.00;101473.84;87702;271;22940;-71
2024/02/17 04:36:47;;;;;;;34.80;21.60;;;;;;;0.61;100.00;101470.07;87544;269;137054;-72
2024/02/17 04:38:50;;;;;;;33.10;21.60;;;;;;;0.63;100.00;101464.57;87626;278;24161;-71
2024/02/17 04:40:51;;;;;;;37.10;22.70;;;;;;;0.62;100.00;101469.13;87661;269;137148;-74
2024/02/17 04:42:56;;;;;;;34.20;21.30;;;;;;;0.64;100.00;101467.59;87551;267;26849;-72
2024/02/17 04:44:58;;;;;;;36.30;23.40;;;;;;;0.67;100.00;101462.70;87790;274;137171;-73
2024/02/17 04:47:00;;;;;;;35.40;23.70;;;;;;;0.68;100.00;101464.37;87687;269;22637;-79
2024/02/17 04:49:02;;;;;;;38.00;23.10;;;;;;;0.72;100.00;101462.23;87869;269;136896;-75
2024/02/17 04:51:04;;;;;;;36.30;23.80;;;;;;;0.72;100.00;101463.95;87735;269;25197;-75
2024/02/17 04:53:06;;;;;;;32.90;21.30;;;;;;;0.68;100.00;101462.45;87599;269;136045;-74
2024/02/17 04:55:08;;;;;;;36.30;21.00;;;;;;;0.63;100.00;101462.23;87580;274;24234;-75
2024/02/17 04:57:11;;;;;;;30.80;20.30;;;;;;;0.59;100.00;101461.26;87597;270;136789;-74
2024/02/17 04:59:13;;;;;;;33.80;22.00;;;;;;;0.59;100.00;101462.49;87624;274;22651;-74
2024/02/17 05:01:15;;;;;;;35.70;22.00;;;;;;;0.59;100.00;101462.34;87465;269;136985;-73
2024/02/17 05:03:17;;;;;;;34.10;20.80;;;;;;;0.59;100.00;101465.49;87520;272;22559;-73
2024/02/17 05:05:19;;;;;;;37.70;21.40;;;;;;;0.54;100.00;101464.36;87504;266;136911;-72
2024/02/17 05:07:21;;;;;;;39.10;21.20;;;;;;;0.51;100.00;101467.36;87692;269;25086;-72
2024/02/17 05:09:25;;;;;;;31.10;20.30;;;;;;;0.51;100.00;101463.84;87613;270;136943;-72
2024/02/17 05:11:27;;;;;;;33.10;19.80;;;;;;;0.53;100.00;101460.09;87733;270;22601;-71
2024/02/17 05:13:28;;;;;;;39.40;21.40;;;;;;;0.50;100.00;101457.63;87464;269;136942;-72
2024/02/17 05:15:30;;;;;;;35.70;20.30;;;;;;;0.49;100.00;101466.11;87544;269;25111;-72
2024/02/17 05:17:33;;;;;;;40.60;24.20;;;;;;;0.47;100.00;101470.41;87653;270;136932;-73
2024/02/17 05:19:35;;;;;;;37.70;23.70;;;;;;;0.47;100.00;101475.46;87643;269;23037;-75
2024/02/17 05:21:38;;;;;;;46.10;26.20;;;;;;;0.48;100.00;101471.60;87774;269;136854;-74
2024/02/17 05:23:39;;;;;;;35.80;23.30;;;;;;;0.50;100.00;101473.18;87718;262;22542;-76
2024/02/17 05:25:41;;;;;;;40.50;22.90;;;;;;;0.48;100.00;101474.70;87748;270;136221;-73
2024/02/17 05:27:43;;;;;;;32.80;21.00;;;;;;;0.42;100.00;101472.80;87697;278;25284;-70
2024/02/17 05:29:45;;;;;;;35.00;18.80;;;;;;;0.36;100.00;101470.40;87052;274;137744;-70
2024/02/17 05:31:47;;;;;;;35.60;20.70;;;;;;;0.32;100.00;101470.80;86997;275;24045;-69
2024/02/17 05:33:49;;;;;;;30.80;19.20;;;;;;;0.28;100.00;101478.05;87121;269;137166;-71
2024/02/17 05:35:51;;;;;;;32.40;19.80;;;;;;;0.26;100.00;101479.59;87219;270;22568;-70
2024/02/17 05:37:53;;;;;;;33.70;19.70;;;;;;;0.24;100.00;101478.48;87260;269;137808;-71
2024/02/17 05:39:56;;;;;;;29.50;18.50;;;;;;;0.24;100.00;101479.33;87198;274;24004;-71
2024/02/17 05:41:59;;;;;;;28.20;17.50;;;;;;;0.23;100.00;101481.14;86994;276;136739;-73
2024/02/17 05:44:01;;;;;;;31.20;18.90;;;;;;;0.21;100.00;101480.55;87273;279;22574;-71
2024/02/17 05:46:03;;;;;;;26.90;16.80;;;;;;;0.21;100.00;101478.98;87480;275;22605;-70
2024/02/17 05:48:05;;;;;;;27.10;16.20;;;;;;;0.22;100.00;101481.20;87402;271;137367;-71
2024/02/17 05:50:07;;;;;;;27.30;16.60;;;;;;;0.22;100.00;101483.49;87316;273;25089;-72
2024/02/17 05:52:09;;;;;;;23.90;15.40;;;;;;;0.18;100.00;101483.71;87767;269;138555;-73
2024/02/17 05:54:14;;;;;;;23.90;14.70;;;;;;;0.16;100.00;101486.98;87254;271;25111;-72
2024/02/17 05:56:16;;;;;;;24.60;14.80;;;;;;;0.13;100.00;101489.06;86994;271;137260;-71
2024/02/17 05:58:18;;;;;;;23.80;16.10;;;;;;;0.14;100.00;101486.23;87306;278;22565;-73
2024/02/17 06:00:20;;;;;;;24.10;15.30;;;;;;;0.13;100.00;101489.77;86899;267;136958;-72
2024/02/17 06:02:22;;;;;;;26.00;14.70;;;;;;;0.12;100.00;101489.69;87341;267;22893;-71
2024/02/17 06:04:24;;;;;;;24.00;15.60;;;;;;;0.07;100.00;101491.18;87148;271;137749;-72
2024/02/17 06:06:26;;;;;;;23.40;15.00;;;;;;;0.08;100.00;101487.10;87206;271;23890;-72
2024/02/17 06:08:29;;;;;;;22.70;14.30;;;;;;;0.06;100.00;101492.10;87040;276;138637;-70
2024/02/17 06:10:35;;;;;;;25.80;17.40;;;;;;;0.05;100.00;101487.48;87238;271;25191;-72
2024/02/17 06:12:37;;;;;;;23.70;16.50;;;;;;;0.03;100.00;101489.50;87043;278;137257;-72
2024/02/17 06:14:39;;;;;;;28.20;18.50;;;;;;;0.03;100.00;101488.85;87148;279;26200;-79
2024/02/17 06:16:41;;;;;;;28.40;16.80;;;;;;;0.05;100.00;101487.48;86900;280;137826;-72
2024/02/17 06:21:10;;;;;;;22.70;14.40;;;;;;;0.07;100.00;101487.39;87031;274;136593;-72
2024/02/17 06:23:12;;;;;;;28.00;17.40;;;;;;;0.07;100.00;101494.17;87202;269;22549;-72
2024/02/17 06:25:14;;;;;;;27.90;18.60;;;;;;;0.08;100.00;101496.03;87116;277;136953;-76
2024/02/17 06:27:16;;;;;;;26.20;16.90;;;;;;;0.06;100.00;101497.71;87213;270;22563;-72
2024/02/17 06:29:18;;;;;;;20.50;15.00;;;;;;;0.03;100.00;101505.92;87139;274;138272;-71
2024/02/17 06:31:20;;;;;;;32.10;17.70;;;;;;;0.04;100.00;101504.64;87193;266;22655;-71
2024/02/17 06:33:22;;;;;;;22.70;15.00;;;;;;;0.05;100.00;101504.56;87337;269;137285;-72
2024/02/17 06:35:25;;;;;;;23.60;16.00;;;;;;;0.06;100.00;101500.00;87331;269;22651;-73
2024/02/17 06:37:26;;;;;;;25.90;17.00;;;;;;;0.08;100.00;101498.12;87199;266;136857;-78
2024/02/17 06:39:28;;;;;;;28.10;19.20;;;;;;;0.05;100.00;101492.91;87213;270;26205;-73
2024/02/17 06:41:31;;;;;;;30.00;20.20;;;;;;;-0.01;100.00;101500.07;87154;274;136868;-76
2024/02/17 06:43:33;;;;;;;26.20;17.10;;;;;;;0.01;100.00;101501.01;87258;270;22983;-73
2024/02/17 06:45:34;;;;;;;29.20;17.50;;;;;;;0.05;100.00;101498.99;87092;267;138037;-74
2024/02/17 06:47:40;;;;;;;31.10;20.20;;;;;;;0.03;100.00;101492.66;87157;274;24305;-74
2024/02/17 06:49:46;;;;;;;33.10;21.50;;;;;;;0.02;100.00;101497.58;87678;271;138002;-80
2024/02/17 06:51:49;;;;;;;32.50;22.40;;;;;;;0.05;100.00;101499.85;87734;268;22597;-71
2024/02/17 06:53:51;;;;;;;38.90;23.20;;;;;;;0.10;100.00;101501.84;87883;271;136996;-69
2024/02/17 06:55:53;;;;;;;32.90;22.60;;;;;;;0.17;100.00;101493.57;87809;264;22520;-78
2024/02/17 06:57:55;;;;;;;36.80;25.10;;;;;;;0.18;100.00;101494.53;87778;275;137856;-71
2024/02/17 06:59:57;;;;;;;44.20;23.90;;;;;;;0.15;100.00;101497.86;88061;278;22537;-70
2024/02/17 07:01:59;;;;;;;51.20;28.80;;;;;;;0.04;100.00;101500.61;87109;271;137713;-65
2024/02/17 07:04:00;;;;;;;42.20;27.60;;;;;;;0.01;100.00;101504.65;86820;270;25223;-67
2024/02/17 07:06:03;;;;;;;50.60;28.40;;;;;;;0.00;100.00;101500.88;87144;278;25327;-66
2024/02/17 07:08:07;;;;;;;52.50;28.90;;;;;;;-0.01;100.00;101502.52;89302;274;137297;-66
2024/02/17 07:10:09;;;;;;;31.20;22.60;;;;;;;0.01;100.00;101503.11;87851;267;22652;-66
2024/02/17 07:12:11;;;;;;;41.80;24.30;;;;;;;-0.00;100.00;101501.25;86884;279;139358;-71
2024/02/17 07:14:13;;;;;;;38.50;25.20;;;;;;;-0.06;100.00;101503.67;87156;266;25121;-71
2024/02/17 07:16:15;;;;;;;38.30;22.30;;;;;;;-0.11;100.00;101506.23;87028;269;137730;-67
2024/02/17 07:18:18;;;;;;;36.50;22.50;;;;;;;-0.13;100.00;101509.69;86981;279;23070;-70
2024/02/17 07:20:20;;;;;;;38.60;23.20;;;;;;;-0.13;100.00;101509.86;87123;267;137542;-68
2024/02/17 07:22:21;;;;;;;36.30;23.50;;;;;;;-0.13;100.00;101505.52;87125;271;22979;-70
2024/02/17 07:24:23;;;;;;;40.60;24.10;;;;;;;-0.10;100.00;101510.72;87094;267;137110;-67
2024/02/17 07:26:25;;;;;;;44.20;25.60;;;;;;;-0.04;100.00;101511.93;87041;271;22547;-67
2024/02/17 07:28:28;;;;;;;34.00;24.00;;;;;;;0.04;100.00;101510.29;86909;271;137054;-71
2024/02/17 07:30:31;;;;;;;37.50;24.60;;;;;;;0.08;100.00;101512.82;87653;275;22577;-67
2024/02/17 07:32:33;;;;;;;42.10;22.90;;;;;;;0.08;100.00;101508.06;89673;275;136967;-72
2024/02/17 07:34:36;;;;;;;34.80;23.10;;;;;;;0.12;100.00;101511.84;89972;267;22322;-68
2024/02/17 07:36:38;;;;;;;37.60;25.40;;;;;;;0.19;100.00;101512.86;89898;267;137877;-67
2024/02/17 07:38:40;;;;;;;37.70;25.60;;;;;;;0.25;100.00;101507.98;89988;266;22324;-67
2024/02/17 07:40:42;;;;;;;37.50;26.60;;;;;;;0.29;100.00;101509.63;89906;266;137581;-70
2024/02/17 07:42:43;;;;;;;42.00;27.60;;;;;;;0.33;100.00;101506.41;90106;270;22283;-69
2024/02/17 07:44:46;;;;;;;49.50;28.50;;;;;;;0.41;100.00;101506.80;90072;267;137854;-65
2024/02/17 07:46:49;;;;;;;42.00;28.90;;;;;;;0.45;100.00;101509.51;89501;263;738777;-66
2024/02/17 07:48:51;;;;;;;40.80;25.20;;;;;;;0.44;100.00;101505.70;89688;268;136365;-69
2024/02/17 07:50:53;;;;;;;36.10;23.30;;;;;;;0.41;100.00;101505.23;89932;274;22360;-69
2024/02/17 07:52:55;;;;;;;35.60;24.50;;;;;;;0.42;100.00;101503.96;89800;267;136744;-68
2024/02/17 07:54:57;;;;;;;40.40;26.60;;;;;;;0.46;100.00;101504.73;88339;272;24796;-65
2024/02/17 07:56:59;;;;;;;39.90;26.30;;;;;;;0.49;100.00;101497.06;87629;271;138339;-67
2024/02/17 07:59:00;;;;;;;41.70;27.10;;;;;;;0.50;100.00;101491.54;87578;276;23972;-69
2024/02/17 08:01:02;;;;;;;43.00;26.60;;;;;;;0.54;100.00;101492.38;87634;279;136956;-70
2024/02/17 08:03:05;;;;;;;49.70;27.90;;;;;;;0.58;100.00;101493.33;87535;279;24037;-73
2024/02/17 08:05:10;;;;;;;41.40;24.30;;;;;;;0.58;100.00;101490.02;87436;269;139984;-69
2024/02/17 08:07:14;;;;;;;38.40;25.20;;;;;;;0.49;100.00;101489.38;89837;267;22448;-70
2024/02/17 08:09:17;;;;;;;43.10;25.10;;;;;;;0.45;100.00;101490.12;89579;267;137204;-73
2024/02/17 08:11:19;;;;;;;37.60;25.80;;;;;;;0.48;100.00;101490.83;87874;271;23174;-68
2024/02/17 08:13:22;;;;;;;32.60;23.10;;;;;;;0.50;100.00;101484.39;87626;267;137008;-67
2024/02/17 08:15:24;;;;;;;40.20;24.30;;;;;;;0.50;100.00;101481.91;86978;279;24107;-66
2024/02/17 08:17:26;;;;;;;32.20;20.90;;;;;;;0.49;100.00;101479.52;87367;271;137241;-69
2024/02/17 08:19:28;;;;;;;32.90;20.10;;;;;;;0.50;100.00;101480.90;87099;278;22633;-71
2024/02/17 08:21:31;;;;;;;29.40;18.80;;;;;;;0.47;100.00;101477.42;87600;263;137117;-67
2024/02/17 08:23:33;;;;;;;31.70;20.80;;;;;;;0.42;100.00;101475.94;87957;271;23188;-68
2024/02/17 08:25:35;;;;;;;31.70;21.50;;;;;;;0.40;100.00;101479.74;87673;267;138744;-70
2024/02/17 08:27:37;;;;;;;33.00;20.10;;;;;;;0.41;100.00;101476.20;87663;276;22568;-69
2024/02/17 08:29:40;;;;;;;31.40;18.40;;;;;;;0.45;100.00;101471.05;87598;263;136897;-67
2024/02/17 08:31:51;;;;;;;29.80;17.20;;;;;;;0.40;100.00;101464.70;87208;274;25186;-69
2024/02/17 08:33:54;;;;;;;25.80;17.70;;;;;;;0.36;100.00;101462.35;87444;270;137271;-67
2024/02/17 08:35:56;;;;;;;27.80;18.70;;;;;;;0.32;100.00;101460.67;87076;273;22720;-72
2024/02/17 08:37:58;;;;;;;36.50;21.30;;;;;;;0.34;100.00;101456.87;87464;274;136781;-67
2024/02/17 08:40:00;;;;;;;28.90;20.00;;;;;;;0.39;100.00;101453.73;87753;274;22553;-68
2024/02/17 08:42:02;;;;;;;28.80;18.60;;;;;;;0.45;100.00;101453.74;86996;278;137523;-73
2024/02/17 08:44:04;;;;;;;28.40;17.80;;;;;;;0.51;100.00;101451.96;87157;267;137784;-70
2024/02/17 08:46:06;;;;;;;28.00;17.90;;;;;;;0.54;100.00;101451.97;87105;274;25252;-67
2024/02/17 08:48:08;;;;;;;26.60;18.30;;;;;;;0.55;100.00;101450.33;86870;271;139074;-70
2024/02/17 08:50:10;;;;;;;27.10;19.30;;;;;;;0.54;100.00;101448.10;87783;271;25124;-68
2024/02/17 08:52:11;;;;;;;28.70;19.00;;;;;;;0.55;100.00;101449.98;87735;271;137140;-68
2024/02/17 08:54:16;;;;;;;28.70;17.90;;;;;;;0.56;100.00;101455.14;87539;263;25119;-70
2024/02/17 08:56:18;;;;;;;24.60;16.40;;;;;;;0.57;100.00;101448.26;89780;267;136953;-67
2024/02/17 08:58:20;;;;;;;25.50;15.80;;;;;;;0.58;100.00;101448.73;89940;267;22327;-68
2024/02/17 09:00:24;;;;;;;26.60;18.10;;;;;;;0.59;100.00;101459.52;89809;267;138383;-69
2024/02/17 09:02:26;;;;;;;30.30;19.40;;;;;;;0.59;100.00;101460.90;88941;271;24705;-69
2024/02/17 09:04:27;;;;;;;29.80;18.10;;;;;;;0.62;100.00;101457.58;87319;271;159799;-67
2024/02/17 09:06:29;;;;;;;29.30;18.40;;;;;;;0.64;100.00;101460.08;86947;268;24118;-66
2024/02/17 09:08:31;;;;;;;25.10;18.20;;;;;;;0.67;100.00;101460.59;86988;263;137021;-71
2024/02/17 09:10:33;;;;;;;25.80;16.90;;;;;;;0.67;100.00;101462.89;87155;278;24001;-66
2024/02/17 09:12:35;;;;;;;28.80;18.00;;;;;;;0.66;100.00;101458.76;86976;274;137046;-69
2024/02/17 09:14:37;;;;;;;31.00;18.70;;;;;;;0.65;100.00;101458.63;87043;270;22585;-69
2024/02/17 09:16:38;;;;;;;32.80;18.70;;;;;;;0.68;100.00;101457.73;87176;271;138206;-68
2024/02/17 09:18:40;;;;;;;30.50;20.80;;;;;;;0.70;100.00;101457.81;86739;271;22579;-69
2024/02/17 09:20:42;;;;;;;30.20;19.40;;;;;;;0.68;100.00;101454.27;89714;268;137782;-68